Westwood Rainier — C6SI3 — position and weather

sailwx.info

Track history (hours):
 
Tides and Currents Weather Stations Pressure Air Temp Water Temp Dewpoint Dewpoint Depression Visibility Wind Speed Wind Dir Waves Ship Positions

Westwood Rainier

Last reported at 2015-May-29 17:00 UTC. Time now 2015-May-30 00:30 UTC.
Position N 53°00' W 151°48'.

Type: Cargo ship. MMSI: 311348993.

Wind from 110 at 15 knots

Waves 1.5 meters (5 feet), 2 second period

Barometer 1029.3 mb
Air temperature 9.0 ° C
Visibility: greater than 5.4 NM
Dewpoint 9.0 ° C
Water temperature 10.0 ° C

Date/timePositionNaut miles runAvg speedWind from/ knotsBaromVisibWave heightAir tempDewpointWater temp
2015-May-29 17:00N 53°00' W 151°48'33113.8 110 / 151029.3 5.4 1.5 9.0 9.010.0
2015-May-28 17:00N 51°24' W 143°12'34713.9 020 / 151033.0 5.4 1.513.011.115.0
2015-May-27 16:00N 49°06' W 134°54'32513.0 010 / 261027.2 5.4 3.512.010.1 8.0
2015-May-26 15:00N 48°00' W 126°54'3165.5 320 / 351018.8 5.4 5.011.011.010.0
2015-May-26 14:31N 48°30' W 126°42'1313.4
2015-May-26 13:33N 48°30' W 126°23'1313.2
2015-May-26 12:33N 48°31' W 126°03'1414.0
2015-May-26 11:33N 48°31' W 125°42'1413.9
2015-May-26 10:33N 48°31' W 125°21'4614.2
2015-May-26 07:17N 48°22' W 124°12'1014.0
2015-May-26 06:33N 48°18' W 123°58'1413.3
2015-May-26 05:32N 48°16' W 123°38'1010.3
2015-May-26 04:33N 48°21' W 123°25'9 8.5
2015-May-26 03:33N 48°25' W 123°14'1413.9
2015-May-26 02:33N 48°39' W 123°15'1212.2
2015-May-26 01:33N 48°47' W 123°01'1413.9
2015-May-26 00:33N 48°58' W 123°15'1313.1
2015-May-25 23:33N 49°10' W 123°23'1212.3
2015-May-25 22:34N 49°19' W 123°10'3 3.1
2015-May-25 21:31N 49°17' W 123°06'0 0.0
2015-May-25 20:31N 49°17' W 123°06'0 0.0
2015-May-25 19:31N 49°17' W 123°06'0 0.0
2015-May-25 18:31N 49°17' W 123°06'0 0.0
2015-May-25 17:31N 49°17' W 123°06'0 0.0
2015-May-25 16:31N 49°17' W 123°06'0 0.0
2015-May-25 15:31N 49°17' W 123°06'0 0.0
2015-May-25 14:31N 49°17' W 123°06'0 0.0
2015-May-25 13:31N 49°17' W 123°06'0 0.0
2015-May-25 12:34N 49°17' W 123°06'5 4.7
2015-May-25 11:34N 49°19' W 123°13'1010.0
2015-May-25 10:34N 49°10' W 123°20'1313.4
2015-May-25 09:34N 48°58' W 123°11'1312.9
2015-May-25 08:34N 48°47' W 123°01'1212.3
2015-May-25 07:33N 48°38' W 123°14'1414.3
2015-May-25 06:34N 48°23' W 123°14'1211.2
2015-May-25 05:29N 48°15' W 123°27'9 9.8
2015-May-25 04:33N 48°10' W 123°15'1313.4
2015-May-25 03:33N 48°12' W 122°55'1211.7
2015-May-25 02:33N 48°06' W 122°39'1313.2
2015-May-25 01:34N 47°55' W 122°29'1514.9
2015-May-25 00:34N 47°40' W 122°27'1515.2
2015-May-24 23:33N 47°26' W 122°23'9 8.8
2015-May-24 22:32N 47°17' W 122°25'0 0.2
2015-May-24 21:25N 47°17' W 122°25'0 0.0
2015-May-24 20:31N 47°17' W 122°25'0 0.0
2015-May-24 19:31N 47°17' W 122°25'0 0.0
2015-May-24 18:31N 47°17' W 122°25'0 0.0
2015-May-24 17:28N 47°17' W 122°25'0 0.0
2015-May-24 16:31N 47°17' W 122°25'0 0.0
2015-May-24 15:25N 47°17' W 122°25'0 0.0
2015-May-24 14:31N 47°17' W 122°25'0 0.0
2015-May-24 13:33N 47°17' W 122°25'6 5.7
2015-May-24 12:33N 47°22' W 122°23'1413.7
2015-May-24 11:33N 47°36' W 122°28'1414.4
2015-May-24 10:33N 47°50' W 122°28'1313.1
2015-May-24 09:33N 48°01' W 122°38'1211.9
2015-May-24 08:33N 48°11' W 122°49'1414.4
2015-May-24 07:34N 48°12' W 123°10'1211.6
2015-May-24 06:33N 48°12' W 123°28'1514.6
2015-May-24 05:29N 48°13' W 123°51'4715.5
2015-May-24 02:27N 48°29' W 124°58'1815.3
2015-May-24 01:15N 48°12' W 125°10'1014.9
2015-May-24 00:33N 48°02' W 125°14'1414.2
2015-May-23 23:32N 47°48' W 125°16'1414.6
2015-May-23 22:33N 47°33' W 125°13'1414.4
2015-May-23 21:34N 47°19' W 125°10'1514.5
2015-May-23 20:32N 47°05' W 125°06'1414.2
2015-May-23 19:33N 46°51' W 125°03'1414.2
2015-May-23 18:33N 46°40' W 124°49'1414.4
2015-May-23 17:33N 46°30' W 124°35'1414.3
2015-May-23 16:33N 46°19' W 124°20'1110.9
2015-May-23 15:34N 46°14' W 124°06'1312.6
2015-May-23 14:33N 46°12' W 123°48'1313.3
2015-May-23 13:34N 46°16' W 123°30'1111.0
2015-May-23 12:33N 46°09' W 123°19'1312.5
2015-May-23 11:33N 46°08' W 123°01'1 1.2
2015-May-23 10:32N 46°08' W 122°59'0 0.0
2015-May-23 09:32N 46°08' W 122°59'0 0.0
2015-May-23 08:32N 46°08' W 122°59'0 0.0
2015-May-23 07:32N 46°08' W 122°59'0 0.0
2015-May-23 06:29N 46°08' W 122°59'0 0.0
2015-May-23 05:32N 46°08' W 122°59'0 0.0
2015-May-23 04:32N 46°08' W 122°59'0 0.0
2015-May-23 03:32N 46°08' W 122°59'0 0.0
2015-May-23 02:29N 46°08' W 122°59'0 0.0
2015-May-23 01:23N 46°08' W 122°59'0 0.0
2015-May-23 00:32N 46°08' W 122°59'0 0.0
2015-May-22 23:32N 46°08' W 122°59'0 0.0
2015-May-22 22:32N 46°08' W 122°59'0 0.0
2015-May-22 21:32N 46°08' W 122°59'0 0.0
2015-May-22 20:32N 46°08' W 122°59'0 0.0
2015-May-22 19:32N 46°08' W 122°59'0 0.0
2015-May-22 18:32N 46°08' W 122°59'0 0.0
2015-May-22 17:32N 46°08' W 122°59'0 0.0
2015-May-22 16:32N 46°08' W 122°59'0 0.0
2015-May-22 15:32N 46°08' W 122°59'0 0.0
2015-May-22 14:32N 46°08' W 122°59'0 0.0
2015-May-22 13:32N 46°08' W 122°59'0 0.0
2015-May-22 12:32N 46°08' W 122°59'0 0.0
2015-May-22 11:32N 46°08' W 122°59'0 0.0
2015-May-22 10:32N 46°08' W 122°59'0 0.0
2015-May-22 09:29N 46°08' W 122°59'0 0.0
2015-May-22 08:32N 46°08' W 122°59'0 0.0
2015-May-22 07:32N 46°08' W 122°59'0 0.0
2015-May-22 06:32N 46°08' W 122°59'0 0.0
2015-May-22 05:32N 46°08' W 122°59'0 0.0
2015-May-22 04:26N 46°08' W 122°59'0 0.0
2015-May-22 03:32N 46°08' W 122°59'0 0.0
2015-May-22 02:32N 46°08' W 122°59'0 0.0
2015-May-22 01:32N 46°08' W 122°59'0 0.0
2015-May-22 00:32N 46°08' W 122°59'0 0.0
2015-May-21 23:32N 46°08' W 122°59'0 0.0
2015-May-21 22:32N 46°08' W 122°59'0 0.0
2015-May-21 21:32N 46°08' W 122°59'0 0.0
2015-May-21 20:32N 46°08' W 122°59'0 0.0
2015-May-21 19:32N 46°08' W 122°59'0 0.0
2015-May-21 18:26N 46°08' W 122°59'0 0.0
2015-May-21 17:32N 46°08' W 122°59'0 0.0
2015-May-21 16:32N 46°08' W 122°59'0 0.0
2015-May-21 15:23N 46°08' W 122°59'0 0.0
2015-May-21 14:32N 46°08' W 122°59'0 0.0
2015-May-21 13:29N 46°08' W 122°59'0 0.0
2015-May-21 12:32N 46°08' W 122°59'0 0.0
2015-May-21 11:32N 46°08' W 122°59'0 0.0
2015-May-21 10:32N 46°08' W 122°59'0 0.0
2015-May-21 09:32N 46°08' W 122°59'0 0.0
2015-May-21 08:32N 46°08' W 122°59'0 0.0
2015-May-21 07:23N 46°08' W 122°59'0 0.0
2015-May-21 06:26N 46°08' W 122°59'0 0.0
2015-May-21 05:32N 46°08' W 122°59'0 0.0
2015-May-21 04:32N 46°08' W 122°59'0 0.0
2015-May-21 03:32N 46°08' W 122°59'0 0.0
2015-May-21 02:32N 46°08' W 122°59'0 0.0
2015-May-21 01:32N 46°08' W 122°59'0 0.0
2015-May-21 00:32N 46°08' W 122°59'0 0.0
2015-May-20 23:32N 46°08' W 122°59'0 0.0
2015-May-20 22:26N 46°08' W 122°59'0 0.0
2015-May-20 21:32N 46°08' W 122°59'0 0.0
2015-May-20 20:29N 46°08' W 122°59'0 0.0
2015-May-20 19:32N 46°08' W 122°59'0 0.0
2015-May-20 18:29N 46°08' W 122°59'0 0.0
2015-May-20 17:32N 46°08' W 122°59'0 0.0
2015-May-20 16:32N 46°08' W 122°59'0 0.0
2015-May-20 15:32N 46°08' W 122°59'0 0.0
2015-May-20 14:32N 46°08' W 122°59'0 0.0
2015-May-20 13:32N 46°08' W 122°59'0 0.0
2015-May-20 12:23N 46°08' W 122°59'0 0.0
2015-May-20 11:32N 46°08' W 122°59'0 0.0
2015-May-20 10:32N 46°08' W 122°59'0 0.0
2015-May-20 09:32N 46°08' W 122°59'0 0.0
2015-May-20 08:32N 46°08' W 122°59'0 0.0
2015-May-20 07:32N 46°08' W 122°59'0 0.0
2015-May-20 06:32N 46°08' W 122°59'0 0.0
2015-May-20 05:32N 46°08' W 122°59'0 0.0
2015-May-20 04:32N 46°08' W 122°59'0 0.0
2015-May-20 03:32N 46°08' W 122°59'0 0.0
2015-May-20 02:32N 46°08' W 122°59'0 0.0
2015-May-20 01:32N 46°08' W 122°59'0 0.0
2015-May-20 00:32N 46°08' W 122°59'0 0.0
2015-May-19 23:32N 46°08' W 122°59'0 0.0
2015-May-19 22:32N 46°08' W 122°59'0 0.0
2015-May-19 21:32N 46°08' W 122°59'0 0.0
2015-May-19 20:32N 46°08' W 122°59'0 0.0
2015-May-19 19:32N 46°08' W 122°59'0 0.0
2015-May-19 18:32N 46°08' W 122°59'0 0.0
2015-May-19 17:32N 46°08' W 122°59'  
Track history (hours):
 
Tides and Currents Weather Stations Pressure Air Temp Water Temp Dewpoint Dewpoint Depression Visibility Wind Speed Wind Dir Waves Ship Positions

Westwood Rainier

Last reported at 2015-May-29 17:00 UTC. Time now 2015-May-30 00:30 UTC.
Position N 53°00' W 151°48'.

Type: Cargo ship. MMSI: 311348993.

Wind from 110 at 15 knots

Waves 1.5 meters (5 feet), 2 second period

Barometer 1029.3 mb
Air temperature 9.0 ° C
Visibility: greater than 5.4 NM
Dewpoint 9.0 ° C
Water temperature 10.0 ° C

Date/timePositionNaut miles runAvg speedWind from/ knotsBaromVisibWave heightAir tempDewpointWater temp
2015-May-29 17:00N 53°00' W 151°48'33113.8 110 / 151029.3 5.4 1.5 9.0 9.010.0
2015-May-28 17:00N 51°24' W 143°12'34713.9 020 / 151033.0 5.4 1.513.011.115.0
2015-May-27 16:00N 49°06' W 134°54'32513.0 010 / 261027.2 5.4 3.512.010.1 8.0
2015-May-26 15:00N 48°00' W 126°54'3165.5 320 / 351018.8 5.4 5.011.011.010.0
2015-May-26 14:31N 48°30' W 126°42'1313.4
2015-May-26 13:33N 48°30' W 126°23'1313.2
2015-May-26 12:33N 48°31' W 126°03'1414.0
2015-May-26 11:33N 48°31' W 125°42'1413.9
2015-May-26 10:33N 48°31' W 125°21'4614.2
2015-May-26 07:17N 48°22' W 124°12'1014.0
2015-May-26 06:33N 48°18' W 123°58'1413.3
2015-May-26 05:32N 48°16' W 123°38'1010.3
2015-May-26 04:33N 48°21' W 123°25'9 8.5
2015-May-26 03:33N 48°25' W 123°14'1413.9
2015-May-26 02:33N 48°39' W 123°15'1212.2
2015-May-26 01:33N 48°47' W 123°01'1413.9
2015-May-26 00:33N 48°58' W 123°15'1313.1
2015-May-25 23:33N 49°10' W 123°23'1212.3
2015-May-25 22:34N 49°19' W 123°10'3 3.1
2015-May-25 21:31N 49°17' W 123°06'0 0.0
2015-May-25 20:31N 49°17' W 123°06'0 0.0
2015-May-25 19:31N 49°17' W 123°06'0 0.0
2015-May-25 18:31N 49°17' W 123°06'0 0.0
2015-May-25 17:31N 49°17' W 123°06'0 0.0
2015-May-25 16:31N 49°17' W 123°06'0 0.0
2015-May-25 15:31N 49°17' W 123°06'0 0.0
2015-May-25 14:31N 49°17' W 123°06'0 0.0
2015-May-25 13:31N 49°17' W 123°06'0 0.0
2015-May-25 12:34N 49°17' W 123°06'5 4.7
2015-May-25 11:34N 49°19' W 123°13'1010.0
2015-May-25 10:34N 49°10' W 123°20'1313.4
2015-May-25 09:34N 48°58' W 123°11'1312.9
2015-May-25 08:34N 48°47' W 123°01'1212.3
2015-May-25 07:33N 48°38' W 123°14'1414.3
2015-May-25 06:34N 48°23' W 123°14'1211.2
2015-May-25 05:29N 48°15' W 123°27'9 9.8
2015-May-25 04:33N 48°10' W 123°15'1313.4
2015-May-25 03:33N 48°12' W 122°55'1211.7
2015-May-25 02:33N 48°06' W 122°39'1313.2
2015-May-25 01:34N 47°55' W 122°29'1514.9
2015-May-25 00:34N 47°40' W 122°27'1515.2
2015-May-24 23:33N 47°26' W 122°23'9 8.8
2015-May-24 22:32N 47°17' W 122°25'0 0.2
2015-May-24 21:25N 47°17' W 122°25'0 0.0
2015-May-24 20:31N 47°17' W 122°25'0 0.0
2015-May-24 19:31N 47°17' W 122°25'0 0.0
2015-May-24 18:31N 47°17' W 122°25'0 0.0
2015-May-24 17:28N 47°17' W 122°25'0 0.0
2015-May-24 16:31N 47°17' W 122°25'0 0.0
2015-May-24 15:25N 47°17' W 122°25'0 0.0
2015-May-24 14:31N 47°17' W 122°25'0 0.0
2015-May-24 13:33N 47°17' W 122°25'6 5.7
2015-May-24 12:33N 47°22' W 122°23'1413.7
2015-May-24 11:33N 47°36' W 122°28'1414.4
2015-May-24 10:33N 47°50' W 122°28'1313.1
2015-May-24 09:33N 48°01' W 122°38'1211.9
2015-May-24 08:33N 48°11' W 122°49'1414.4
2015-May-24 07:34N 48°12' W 123°10'1211.6
2015-May-24 06:33N 48°12' W 123°28'1514.6
2015-May-24 05:29N 48°13' W 123°51'4715.5
2015-May-24 02:27N 48°29' W 124°58'1815.3
2015-May-24 01:15N 48°12' W 125°10'1014.9
2015-May-24 00:33N 48°02' W 125°14'1414.2
2015-May-23 23:32N 47°48' W 125°16'1414.6
2015-May-23 22:33N 47°33' W 125°13'1414.4
2015-May-23 21:34N 47°19' W 125°10'1514.5
2015-May-23 20:32N 47°05' W 125°06'1414.2
2015-May-23 19:33N 46°51' W 125°03'1414.2
2015-May-23 18:33N 46°40' W 124°49'1414.4
2015-May-23 17:33N 46°30' W 124°35'1414.3
2015-May-23 16:33N 46°19' W 124°20'1110.9
2015-May-23 15:34N 46°14' W 124°06'1312.6
2015-May-23 14:33N 46°12' W 123°48'1313.3
2015-May-23 13:34N 46°16' W 123°30'1111.0
2015-May-23 12:33N 46°09' W 123°19'1312.5
2015-May-23 11:33N 46°08' W 123°01'1 1.2
2015-May-23 10:32N 46°08' W 122°59'0 0.0
2015-May-23 09:32N 46°08' W 122°59'0 0.0
2015-May-23 08:32N 46°08' W 122°59'0 0.0
2015-May-23 07:32N 46°08' W 122°59'0 0.0
2015-May-23 06:29N 46°08' W 122°59'0 0.0
2015-May-23 05:32N 46°08' W 122°59'0 0.0
2015-May-23 04:32N 46°08' W 122°59'0 0.0
2015-May-23 03:32N 46°08' W 122°59'0 0.0
2015-May-23 02:29N 46°08' W 122°59'0 0.0
2015-May-23 01:23N 46°08' W 122°59'0 0.0
2015-May-23 00:32N 46°08' W 122°59'0 0.0
2015-May-22 23:32N 46°08' W 122°59'0 0.0
2015-May-22 22:32N 46°08' W 122°59'0 0.0
2015-May-22 21:32N 46°08' W 122°59'0 0.0
2015-May-22 20:32N 46°08' W 122°59'0 0.0
2015-May-22 19:32N 46°08' W 122°59'0 0.0
2015-May-22 18:32N 46°08' W 122°59'0 0.0
2015-May-22 17:32N 46°08' W 122°59'0 0.0
2015-May-22 16:32N 46°08' W 122°59'0 0.0
2015-May-22 15:32N 46°08' W 122°59'0 0.0
2015-May-22 14:32N 46°08' W 122°59'0 0.0
2015-May-22 13:32N 46°08' W 122°59'0 0.0
2015-May-22 12:32N 46°08' W 122°59'0 0.0
2015-May-22 11:32N 46°08' W 122°59'0 0.0
2015-May-22 10:32N 46°08' W 122°59'0 0.0
2015-May-22 09:29N 46°08' W 122°59'0 0.0
2015-May-22 08:32N 46°08' W 122°59'0 0.0
2015-May-22 07:32N 46°08' W 122°59'0 0.0
2015-May-22 06:32N 46°08' W 122°59'0 0.0
2015-May-22 05:32N 46°08' W 122°59'0 0.0
2015-May-22 04:26N 46°08' W 122°59'0 0.0
2015-May-22 03:32N 46°08' W 122°59'0 0.0
2015-May-22 02:32N 46°08' W 122°59'0 0.0
2015-May-22 01:32N 46°08' W 122°59'0 0.0
2015-May-22 00:32N 46°08' W 122°59'0 0.0
2015-May-21 23:32N 46°08' W 122°59'0 0.0
2015-May-21 22:32N 46°08' W 122°59'0 0.0
2015-May-21 21:32N 46°08' W 122°59'0 0.0
2015-May-21 20:32N 46°08' W 122°59'0 0.0
2015-May-21 19:32N 46°08' W 122°59'0 0.0
2015-May-21 18:26N 46°08' W 122°59'0 0.0
2015-May-21 17:32N 46°08' W 122°59'0 0.0
2015-May-21 16:32N 46°08' W 122°59'0 0.0
2015-May-21 15:23N 46°08' W 122°59'0 0.0
2015-May-21 14:32N 46°08' W 122°59'0 0.0
2015-May-21 13:29N 46°08' W 122°59'0 0.0
2015-May-21 12:32N 46°08' W 122°59'0 0.0
2015-May-21 11:32N 46°08' W 122°59'0 0.0
2015-May-21 10:32N 46°08' W 122°59'0 0.0
2015-May-21 09:32N 46°08' W 122°59'0 0.0
2015-May-21 08:32N 46°08' W 122°59'0 0.0
2015-May-21 07:23N 46°08' W 122°59'0 0.0
2015-May-21 06:26N 46°08' W 122°59'0 0.0
2015-May-21 05:32N 46°08' W 122°59'0 0.0
2015-May-21 04:32N 46°08' W 122°59'0 0.0
2015-May-21 03:32N 46°08' W 122°59'0 0.0
2015-May-21 02:32N 46°08' W 122°59'0 0.0
2015-May-21 01:32N 46°08' W 122°59'0 0.0
2015-May-21 00:32N 46°08' W 122°59'0 0.0
2015-May-20 23:32N 46°08' W 122°59'0 0.0
2015-May-20 22:26N 46°08' W 122°59'0 0.0
2015-May-20 21:32N 46°08' W 122°59'0 0.0
2015-May-20 20:29N 46°08' W 122°59'0 0.0
2015-May-20 19:32N 46°08' W 122°59'0 0.0
2015-May-20 18:29N 46°08' W 122°59'0 0.0
2015-May-20 17:32N 46°08' W 122°59'0 0.0
2015-May-20 16:32N 46°08' W 122°59'0 0.0
2015-May-20 15:32N 46°08' W 122°59'0 0.0
2015-May-20 14:32N 46°08' W 122°59'0 0.0
2015-May-20 13:32N 46°08' W 122°59'0 0.0
2015-May-20 12:23N 46°08' W 122°59'0 0.0
2015-May-20 11:32N 46°08' W 122°59'0 0.0
2015-May-20 10:32N 46°08' W 122°59'0 0.0
2015-May-20 09:32N 46°08' W 122°59'0 0.0
2015-May-20 08:32N 46°08' W 122°59'0 0.0
2015-May-20 07:32N 46°08' W 122°59'0 0.0
2015-May-20 06:32N 46°08' W 122°59'0 0.0
2015-May-20 05:32N 46°08' W 122°59'0 0.0
2015-May-20 04:32N 46°08' W 122°59'0 0.0
2015-May-20 03:32N 46°08' W 122°59'0 0.0
2015-May-20 02:32N 46°08' W 122°59'0 0.0
2015-May-20 01:32N 46°08' W 122°59'0 0.0
2015-May-20 00:32N 46°08' W 122°59'0 0.0
2015-May-19 23:32N 46°08' W 122°59'0 0.0
2015-May-19 22:32N 46°08' W 122°59'0 0.0
2015-May-19 21:32N 46°08' W 122°59'0 0.0
2015-May-19 20:32N 46°08' W 122°59'0 0.0
2015-May-19 19:32N 46°08' W 122°59'0 0.0
2015-May-19 18:32N 46°08' W 122°59'0 0.0
2015-May-19 17:32N 46°08' W 122°59'  

Dump ship's entire track history